Home > Products > Valid Products > TAF

000
FTUS42 KCAE 060100 AAA
TAFAGS
TAF AMD
KAGS 060108Z 0601/0624 VRB03KT P6SM SCT250
      TEMPO 0608/0611 00000KT 3SM BR SCT004
     FM061400 06009KT P6SM BKN200=



000
FTUS42 KCAE 060100 AAA
TAFAGS
TAF AMD
KAGS 060108Z 0601/0624 VRB03KT P6SM SCT250
      TEMPO 0608/0611 00000KT 3SM BR SCT004
     FM061400 06009KT P6SM BKN200=



000
FTUS42 KCAE 060100 AAA
TAFOGB
TAF AMD
KOGB 060106Z 0601/0624 08003KT P6SM BKN250
     FM061400 07010KT P6SM BKN200=



000
FTUS42 KCAE 060100 AAA
TAFCAE
TAF AMD
KCAE 060101Z 0601/0624 13003KT P6SM SCT200
     FM061400 07008KT P6SM BKN200=



000
FTUS42 KCAE 052300
TAFDNL
TAF
KDNL 052324Z 0600/0624 10005KT P6SM SCT250
     FM061400 06010KT P6SM BKN200=



000
FTUS42 KCAE 052300
TAFAGS
TAF
KAGS 052324Z 0600/0624 10007KT P6SM SCT060
     FM060200 11003KT P6SM SCT250
     FM061400 06009KT P6SM BKN200=



000
FTUS42 KCAE 052300
TAFCUB
TAF
KCUB 052324Z 0600/0624 VRB04KT P6SM SCT250
     FM061400 06006KT P6SM BKN200=



000
FTUS42 KCAE 052300
TAFOGB
TAF
KOGB 052324Z 0600/0624 10006KT P6SM SCT250
     FM060200 08003KT P6SM BKN250
     FM061400 07010KT P6SM BKN200=



000
FTUS42 KCAE 052300
TAFDNL
TAF
KDNL 052324Z 0600/0624 10005KT P6SM SCT250
     FM061400 06010KT P6SM BKN200=



000
FTUS42 KCAE 052300
TAFCAE
TAF
KCAE 052324Z 0600/0624 12008KT P6SM SCT060
     FM060200 13003KT P6SM SCT250
     FM061400 07008KT P6SM BKN200=



000
FTUS42 KCAE 052300
TAFOGB
TAF
KOGB 052324Z 0600/0624 10006KT P6SM SCT250
     FM060200 08003KT P6SM BKN250
     FM061400 07010KT P6SM BKN200=



000
FTUS42 KCAE 052300
TAFCAE
TAF
KCAE 052324Z 0600/0624 12008KT P6SM SCT060
     FM060200 13003KT P6SM SCT250
     FM061400 07008KT P6SM BKN200=



000
FTUS42 KCAE 052300
TAFCUB
TAF
KCUB 052324Z 0600/0624 VRB04KT P6SM SCT250
     FM061400 06006KT P6SM BKN200=



000
FTUS42 KCAE 052300
TAFAGS
TAF
KAGS 052324Z 0600/0624 10007KT P6SM SCT060
     FM060200 11003KT P6SM SCT250
     FM061400 06009KT P6SM BKN200=



000
FTUS42 KCAE 052100 AAB
TAFCAE
TAF AMD
KCAE 052109Z 0521/0618 12010KT P6SM SCT060
     FM060100 13004KT P6SM SKC
     FM060800 00000KT P6SM SCT005
     FM061400 07008KT P6SM SKC=



000
FTUS42 KCAE 052100 AAB
TAFCAE
TAF AMD
KCAE 052109Z 0521/0618 12010KT P6SM SCT060
     FM060100 13004KT P6SM SKC
     FM060800 00000KT P6SM SCT005
     FM061400 07008KT P6SM SKC=



000
FTUS42 KCAE 051900 AAA
TAFAGS
TAF AMD
KAGS 051925Z 0519/0618 10010KT P6SM SCT060
     FM060100 13003KT P6SM SKC
     FM060700 00000KT 3SM BR SCT008
     FM061400 06006KT P6SM SKC=



000
FTUS42 KCAE 051900 AAA
TAFOGB
TAF AMD
KOGB 051924Z 0519/0618 09010KT P6SM SCT060
     FM060100 15003KT P6SM FEW070
     FM060600 00000KT P6SM SCT005
     FM061400 05008KT P6SM SKC=



000
FTUS42 KCAE 051900 AAA
TAFCAE
TAF AMD
KCAE 051922Z 0519/0618 09010KT P6SM SCT060
     FM060100 12004KT P6SM SKC
     FM060800 00000KT P6SM SCT005
     FM061400 06006KT P6SM SKC=



000
FTUS42 KCAE 051700
TAFCAE
TAF
KCAE 051720Z 0518/0618 09005KT P6SM SKC
     FM052000 11010KT P6SM SCT050
     FM060100 12004KT P6SM SKC
     FM060800 00000KT P6SM SCT005
     FM061400 06006KT P6SM SKC=



000
FTUS42 KCAE 051700
TAFCUB
TAF
KCUB 051720Z 0518/0618 12005KT P6SM SCT050
     FM060100 00000KT P6SM SKC
     FM060800 00000KT P6SM SCT005
     FM061400 06005KT P6SM SKC=



000
FTUS42 KCAE 051700
TAFAGS
TAF
KAGS 051720Z 0518/0618 VRB04KT P6SM SKC
     FM052000 12007KT P6SM SCT050
     FM060100 13003KT P6SM SKC
     FM060700 00000KT 3SM BR SCT008
     FM061400 06006KT P6SM SKC=



000
FTUS42 KCAE 051700
TAFCAE
TAF
KCAE 051720Z 0518/0618 09005KT P6SM SKC
     FM052000 11010KT P6SM SCT050
     FM060100 12004KT P6SM SKC
     FM060800 00000KT P6SM SCT005
     FM061400 06006KT P6SM SKC=



000
FTUS42 KCAE 051700
TAFDNL
TAF
KDNL 051720Z 0518/0618 10008KT P6SM SCT050
     FM060100 11004KT P6SM SKC
     FM060900 00000KT P6SM SCT007
     FM061400 07007KT P6SM SKC=



000
FTUS42 KCAE 051700
TAFCUB
TAF
KCUB 051720Z 0518/0618 12005KT P6SM SCT050
     FM060100 00000KT P6SM SKC
     FM060800 00000KT P6SM SCT005
     FM061400 06005KT P6SM SKC=



000
FTUS42 KCAE 051700
TAFAGS
TAF
KAGS 051720Z 0518/0618 VRB04KT P6SM SKC
     FM052000 12007KT P6SM SCT050
     FM060100 13003KT P6SM SKC
     FM060700 00000KT 3SM BR SCT008
     FM061400 06006KT P6SM SKC=



000
FTUS42 KCAE 051700
TAFOGB
TAF
KOGB 051720Z 0518/0618 08006KT P6SM SKC
     FM052000 12010KT P6SM SCT050
     FM060100 15003KT P6SM FEW070
     FM060600 00000KT P6SM SCT005
     FM061400 05008KT P6SM SKC=



000
FTUS42 KCAE 051700
TAFDNL
TAF
KDNL 051720Z 0518/0618 10008KT P6SM SCT050
     FM060100 11004KT P6SM SKC
     FM060900 00000KT P6SM SCT007
     FM061400 07007KT P6SM SKC=



000
FTUS42 KCAE 051700
TAFOGB
TAF
KOGB 051720Z 0518/0618 08006KT P6SM SKC
     FM052000 12010KT P6SM SCT050
     FM060100 15003KT P6SM FEW070
     FM060600 00000KT P6SM SCT005
     FM061400 05008KT P6SM SKC=



000
FTUS42 KCAE 051500 AAA
TAFOGB
TAF AMD
KOGB 051503Z 0515/0612 09006KT P6SM SKC
     FM052000 12010KT P6SM SCT050
     FM060100 15003KT P6SM FEW070
     FM060900 04003KT P6SM SCT010=



000
FTUS42 KCAE 051500 AAA
TAFCAE
TAF AMD
KCAE 051503Z 0515/0612 10005KT P6SM SKC
     FM052000 13010KT P6SM SCT050
     FM060100 12004KT P6SM SKC=



000
FTUS42 KCAE 051500 AAA
TAFCUB
TAF AMD
KCUB 051503Z 0515/0612 13005KT P6SM SCT050
     FM060100 00000KT P6SM SKC=



000
FTUS42 KCAE 051500 AAA
TAFDNL
TAF AMD
KDNL 051503Z 0515/0612 09006KT P6SM SKC
     FM051800 10008KT P6SM SCT050
     FM060100 11004KT P6SM SKC=



000
FTUS42 KCAE 051500 AAA
TAFAGS
TAF AMD
KAGS 051503Z 0515/0612 VRB04KT P6SM SKC
     FM052000 12010KT P6SM SCT050
     FM060100 13003KT P6SM SKC=



000
FTUS42 KCAE 051500 AAA
TAFDNL
TAF AMD
KDNL 051503Z 0515/0612 09006KT P6SM SKC
     FM051800 10008KT P6SM SCT050
     FM060100 11004KT P6SM SKC=



000
FTUS42 KCAE 051500 AAA
TAFAGS
TAF AMD
KAGS 051503Z 0515/0612 VRB04KT P6SM SKC
     FM052000 12010KT P6SM SCT050
     FM060100 13003KT P6SM SKC=



000
FTUS42 KCAE 051100
TAFOGB
TAF
KOGB 051120Z 0512/0612 VRB03KT P6SM SKC
      TEMPO 0512/0513 4SM BR
     FM051400 09006KT P6SM SKC
     FM052000 12010KT P6SM SCT050
     FM060100 15003KT P6SM FEW070
     FM060900 04003KT P6SM SCT010=



000
FTUS42 KCAE 051100
TAFAGS
TAF
KAGS 051120Z 0512/0612 00000KT P6SM SKC
      TEMPO 0512/0513 4SM BR
     FM051400 10005KT P6SM SKC
     FM052000 12010KT P6SM SCT050
     FM060100 13003KT P6SM SKC=



000
FTUS42 KCAE 051100
TAFCAE
TAF
KCAE 051120Z 0512/0612 20003KT P6SM SKC
     FM051400 10005KT P6SM SKC
     FM052000 13010KT P6SM SCT050
     FM060100 12004KT P6SM SKC=



000
FTUS42 KCAE 051100
TAFCUB
TAF
KCUB 051120Z 0512/0612 00000KT P6SM SKC
     FM051500 15005KT P6SM SCT050
     FM060100 00000KT P6SM SKC=



000
FTUS42 KCAE 051100
TAFDNL
TAF
KDNL 051120Z 0512/0612 07003KT P6SM SKC
     FM051500 11006KT P6SM SKC
     FM051800 10008KT P6SM SCT050
     FM060100 11004KT P6SM SKC=



000
FTUS42 KCAE 050800 AAB
TAFAGS
TAF AMD
KAGS 050840Z 0509/0606 00000KT P6SM SKC
      TEMPO 0509/0511 3SM BR
     FM051600 10008KT P6SM SCT050
     FM060100 13003KT P6SM FEW070=



000
FTUS42 KCAE 050800 AAA
TAFDNL
TAF AMD
KDNL 050840Z 0509/0606 12004KT P6SM SKC
     FM051500 10008KT P6SM SCT050
     FM060100 13005KT P6SM FEW070=



000
FTUS42 KCAE 050800 AAA
TAFCUB
TAF AMD
KCUB 050840Z 0509/0606 00000KT P6SM SKC
     FM051500 15005KT P6SM SCT050
     FM060100 00000KT P6SM SKC=



000
FTUS42 KCAE 050800 AAA
TAFCAE
TAF AMD
KCAE 050840Z 0509/0606 00000KT P6SM SKC
     FM051500 10005KT P6SM FEW050
     FM052000 13010KT P6SM SCT050
     FM060100 12004KT P6SM SKC=



000
FTUS42 KCAE 050800 AAA
TAFOGB
TAF AMD
KOGB 050840Z 0509/0606 00000KT P6SM SKC
      TEMPO 0510/0512 5SM BR
     FM051500 09006KT P6SM FEW050
     FM052000 12008KT P6SM SCT050
     FM060100 15003KT P6SM FEW070=



000
FTUS42 KCAE 050700 AAA
TAFAGS
TAF AMD
KAGS 050706Z 0507/0606 00000KT P6SM SKC
      TEMPO 0507/0511 1/4SM FG
     FM051600 10008KT P6SM SCT050
     FM060100 13003KT P6SM FEW070=



000
FTUS42 KCAE 050700 AAA
TAFAGS
TAF AMD
KAGS 050706Z 0507/0606 00000KT P6SM SKC
      TEMPO 0507/0511 1/4SM FG
     FM051600 10008KT P6SM SCT050
     FM060100 13003KT P6SM FEW070=



000
FTUS42 KCAE 050500
TAFAGS
TAF
KAGS 050527Z 0506/0606 00000KT P6SM SKC
      TEMPO 0508/0512 5SM BR
     FM051600 10008KT P6SM SCT050
     FM060100 13003KT P6SM FEW070=



000
FTUS42 KCAE 050500
TAFCUB
TAF
KCUB 050527Z 0506/0606 00000KT P6SM SKC
     FM051500 15005KT P6SM SCT050
     FM060100 00000KT P6SM SKC=



000
FTUS42 KCAE 050500
TAFDNL
TAF
KDNL 050527Z 0506/0606 12004KT P6SM SKC
     FM051500 10008KT P6SM SCT050
     FM060100 13005KT P6SM FEW070=



000
FTUS42 KCAE 050500
TAFOGB
TAF
KOGB 050527Z 0506/0606 00000KT P6SM SKC
      TEMPO 0508/0512 5SM BR
     FM051500 09006KT P6SM FEW050
     FM052000 12008KT P6SM SCT050
     FM060100 15003KT P6SM FEW070=



000
FTUS42 KCAE 050500
TAFCAE
TAF
KCAE 050527Z 0506/0606 00000KT P6SM SKC
     FM051500 10005KT P6SM FEW050
     FM052000 13010KT P6SM SCT050
     FM060100 12004KT P6SM SKC=



000
FTUS42 KCAE 050200 AAA
TAFDNL
TAF AMD
KDNL 050214Z 0502/0524 15005KT P6SM SCT080
     FM051600 11010KT P6SM SCT050=



000
FTUS42 KCAE 050200 AAA
TAFDNL
TAF AMD
KDNL 050214Z 0502/0524 15005KT P6SM SCT080
     FM051600 11010KT P6SM SCT050=



000
FTUS42 KCAE 050200 AAA
TAFAGS
TAF AMD
KAGS 050213Z 0502/0524 15004KT P6SM SCT080
     FM051500 12008KT P6SM SCT050=



000
FTUS42 KCAE 050200 AAA
TAFAGS
TAF AMD
KAGS 050213Z 0502/0524 15004KT P6SM SCT080
     FM051500 12008KT P6SM SCT050=



000
FTUS42 KCAE 050200 AAA
TAFOGB
TAF AMD
KOGB 050211Z 0502/0524 14004KT P6SM SCT050
     FM051500 12009KT P6SM SCT050=



000
FTUS42 KCAE 050200 AAA
TAFCAE
TAF AMD
KCAE 050210Z 0502/0524 VRB04KT P6SM SCT080
     FM051500 13007KT P6SM SCT050=



000
FTUS42 KCAE 050200 AAA
TAFCUB
TAF AMD
KCUB 050210Z 0502/0524 VRB04KT P6SM SCT080
     FM050300 13006KT P6SM SCT050=



000
FTUS42 KCAE 042300
TAFCAE
TAF
KCAE 042320Z 0500/0524 15009KT P6SM SCT060
     FM050300 VRB04KT P6SM SCT050
     FM051500 13007KT P6SM SCT050=



000
FTUS42 KCAE 042300
TAFOGB
TAF
KOGB 042320Z 0500/0524 16010KT P6SM SCT060
     FM050300 14004KT P6SM SCT050
     FM051500 12009KT P6SM SCT050=



000
FTUS42 KCAE 042300
TAFCUB
TAF
KCUB 042320Z 0500/0524 15009KT P6SM SCT060
     FM050300 13004KT P6SM SCT050=



000
FTUS42 KCAE 042300
TAFAGS
TAF
KAGS 042320Z 0500/0524 15008KT P6SM SCT050
     FM050300 VRB04KT P6SM SCT050
     FM051500 12007KT P6SM SCT050=



000
FTUS42 KCAE 042300
TAFAGS
TAF
KAGS 042320Z 0500/0524 15008KT P6SM SCT050
     FM050300 VRB04KT P6SM SCT050
     FM051500 12007KT P6SM SCT050=



000
FTUS42 KCAE 042300
TAFDNL
TAF
KDNL 042320Z 0500/0524 12005KT P6SM SCT050
     FM051600 11009KT P6SM SCT050=



000
FTUS42 KCAE 042300
TAFOGB
TAF
KOGB 042320Z 0500/0524 16010KT P6SM SCT060
     FM050300 14004KT P6SM SCT050
     FM051500 12009KT P6SM SCT050=



000
FTUS42 KCAE 042300
TAFCUB
TAF
KCUB 042320Z 0500/0524 15009KT P6SM SCT060
     FM050300 13004KT P6SM SCT050=



000
FTUS42 KCAE 042300
TAFCAE
TAF
KCAE 042320Z 0500/0524 15009KT P6SM SCT060
     FM050300 VRB04KT P6SM SCT050
     FM051500 13007KT P6SM SCT050=



000
FTUS42 KCAE 042300
TAFDNL
TAF
KDNL 042320Z 0500/0524 12005KT P6SM SCT050
     FM051600 11009KT P6SM SCT050=



000
FTUS42 KCAE 041700
TAFDNL
TAF
KDNL 041724Z 0418/0518 VRB05KT P6SM SCT060=



000
FTUS42 KCAE 041700
TAFCUB
TAF
KCUB 041724Z 0418/0518 VRB05KT P6SM SCT060=



000
FTUS42 KCAE 041700
TAFDNL
TAF
KDNL 041724Z 0418/0518 VRB05KT P6SM SCT060=



000
FTUS42 KCAE 041700
TAFAGS
TAF
KAGS 041724Z 0418/0518 VRB05KT P6SM SCT060=



000
FTUS42 KCAE 041700
TAFOGB
TAF
KOGB 041724Z 0418/0518 VRB05KT P6SM SCT060=



000
FTUS42 KCAE 041700
TAFCUB
TAF
KCUB 041724Z 0418/0518 VRB05KT P6SM SCT060=



000
FTUS42 KCAE 041700
TAFCAE
TAF
KCAE 041724Z 0418/0518 VRB05KT P6SM SCT060=



000
FTUS42 KCAE 041700
TAFAGS
TAF
KAGS 041724Z 0418/0518 VRB05KT P6SM SCT060=



000
FTUS42 KCAE 041700
TAFOGB
TAF
KOGB 041724Z 0418/0518 VRB05KT P6SM SCT060=



000
FTUS42 KCAE 041700
TAFCAE
TAF
KCAE 041724Z 0418/0518 VRB05KT P6SM SCT060=



000
FTUS42 KCAE 041400 AAA
TAFCAE
TAF AMD
KCAE 041441Z 0415/0512 VRB05KT P6SM SCT060=



000
FTUS42 KCAE 041400 AAA
TAFDNL
TAF AMD
KDNL 041441Z 0415/0512 14005KT P6SM SCT060=



000
FTUS42 KCAE 041400 AAA
TAFOGB
TAF AMD
KOGB 041441Z 0415/0512 VRB05KT P6SM SCT060=



000
FTUS42 KCAE 041400 AAA
TAFAGS
TAF AMD
KAGS 041441Z 0415/0512 VRB05KT P6SM SCT060=



000
FTUS42 KCAE 041400 AAA
TAFCUB
TAF AMD
KCUB 041441Z 0415/0512 VRB05KT P6SM SCT060=



000
FTUS42 KCAE 041100
TAFAGS
TAF
KAGS 041133Z 0412/0512 VRB05KT P6SM SCT060=



000
FTUS42 KCAE 041100
TAFCAE
TAF
KCAE 041133Z 0412/0512 VRB05KT P6SM SCT060=



000
FTUS42 KCAE 041100
TAFDNL
TAF
KDNL 041133Z 0412/0512 14005KT P6SM SCT060=



000
FTUS42 KCAE 041100
TAFOGB
TAF
KOGB 041133Z 0412/0512 VRB05KT P6SM SCT060=



000
FTUS42 KCAE 041100
TAFCUB
TAF
KCUB 041133Z 0412/0512 VRB05KT P6SM SCT060=



000
FTUS42 KCAE 040900 AAA
TAFCAE
TAF AMD
KCAE 040958Z 0410/0506 00000KT P6SM SKC
     FM041400 18006KT P6SM SCT060
     FM042300 VRB03KT P6SM SKC=



000
FTUS42 KCAE 040900 AAA
TAFCUB
TAF AMD
KCUB 040958Z 0410/0506 00000KT P6SM SKC
     FM041400 19005KT P6SM BKN060
     FM042300 00000KT P6SM SKC=



000
FTUS42 KCAE 040900 AAA
TAFOGB
TAF AMD
KOGB 040958Z 0410/0506 00000KT P6SM SKC
      TEMPO 0410/0412 5SM BR
     FM041400 15006KT P6SM SCT060
     FM042300 VRB03KT P6SM SKC=



000
FTUS42 KCAE 040900 AAA
TAFAGS
TAF AMD
KAGS 040958Z 0410/0506 00000KT P6SM SKC
      TEMPO 0410/0412 4SM BR
     FM041400 16006KT P6SM SCT060
     FM042300 VRB03KT P6SM SKC=



000
FTUS42 KCAE 040900 AAA
TAFDNL
TAF AMD
KDNL 040958Z 0410/0506 VRB04KT P6SM SKC
     FM041400 16006KT P6SM SCT060
     FM042300 VRB04KT P6SM SKC=



000
FTUS42 KCAE 040500
TAFCAE
TAF
KCAE 040533Z 0406/0506 00000KT P6SM SKC
     FM041400 18006KT P6SM SCT060
     FM042300 VRB03KT P6SM SKC=



000
FTUS42 KCAE 040500
TAFCUB
TAF
KCUB 040533Z 0406/0506 00000KT P6SM SKC
     FM041400 19005KT P6SM BKN060
     FM042300 00000KT P6SM SKC=



000
FTUS42 KCAE 040500
TAFAGS
TAF
KAGS 040533Z 0406/0506 00000KT P6SM SKC
      TEMPO 0409/0412 4SM BR
     FM041400 16006KT P6SM SCT060
     FM042300 VRB03KT P6SM SKC=



000
FTUS42 KCAE 040500
TAFDNL
TAF
KDNL 040533Z 0406/0506 VRB04KT P6SM SKC
     FM041400 16006KT P6SM SCT060
     FM042300 VRB04KT P6SM SKC=



000
FTUS42 KCAE 040500
TAFOGB
TAF
KOGB 040533Z 0406/0506 00000KT P6SM SKC
      TEMPO 0410/0412 5SM BR
     FM041400 15006KT P6SM SCT060
     FM042300 VRB03KT P6SM SKC=



000
FTUS42 KCAE 040500
TAFDNL
TAF
KDNL 040533Z 0406/0506 VRB04KT P6SM SKC
     FM041400 16006KT P6SM SCT060
     FM042300 VRB04KT P6SM SKC=



000
FTUS42 KCAE 040500
TAFCAE
TAF
KCAE 040533Z 0406/0506 00000KT P6SM SKC
     FM041400 18006KT P6SM SCT060
     FM042300 VRB03KT P6SM SKC=



000
FTUS42 KCAE 040500
TAFOGB
TAF
KOGB 040533Z 0406/0506 00000KT P6SM SKC
      TEMPO 0410/0412 5SM BR
     FM041400 15006KT P6SM SCT060
     FM042300 VRB03KT P6SM SKC=



000
FTUS42 KCAE 040500
TAFCUB
TAF
KCUB 040533Z 0406/0506 00000KT P6SM SKC
     FM041400 19005KT P6SM BKN060
     FM042300 00000KT P6SM SKC=



000
FTUS42 KCAE 040500
TAFAGS
TAF
KAGS 040533Z 0406/0506 00000KT P6SM SKC
      TEMPO 0409/0412 4SM BR
     FM041400 16006KT P6SM SCT060
     FM042300 VRB03KT P6SM SKC=



000
FTUS42 KCAE 040200 AAA
TAFCUB
TAF AMD
KCUB 040230Z 0403/0424 00000KT P6SM SCT080
     FM040300 00000KT P6SM FEW060
     FM041400 19005KT P6SM BKN060=



000
FTUS42 KCAE 040200 AAA
TAFOGB
TAF AMD
KOGB 040230Z 0403/0424 VRB05KT P6SM SCT080
     FM040300 00000KT P6SM FEW060
      TEMPO 0410/0412 4SM BR
     FM041400 15005KT P6SM SCT060=



000
FTUS42 KCAE 040200 AAA
TAFDNL
TAF AMD
KDNL 040230Z 0403/0424 00000KT P6SM FEW060
     FM041400 16005KT P6SM SCT060=



000
FTUS42 KCAE 040200 AAA
TAFAGS
TAF AMD
KAGS 040230Z 0403/0424 00000KT P6SM FEW060
      TEMPO 0409/0412 4SM BR
     FM041400 16005KT P6SM SCT060=



000
FTUS42 KCAE 040200 AAA
TAFCAE
TAF AMD
KCAE 040230Z 0403/0424 00000KT P6SM SCT080
     FM041400 18005KT P6SM SCT060=



000
FTUS42 KCAE 040200 AAA
TAFCAE
TAF AMD
KCAE 040230Z 0403/0424 00000KT P6SM SCT080
     FM041400 18005KT P6SM SCT060=



000
FTUS42 KCAE 040200 AAA
TAFAGS
TAF AMD
KAGS 040230Z 0403/0424 00000KT P6SM FEW060
      TEMPO 0409/0412 4SM BR
     FM041400 16005KT P6SM SCT060=



000
FTUS42 KCAE 040200 AAA
TAFDNL
TAF AMD
KDNL 040230Z 0403/0424 00000KT P6SM FEW060
     FM041400 16005KT P6SM SCT060=



000
FTUS42 KCAE 040200 AAA
TAFOGB
TAF AMD
KOGB 040230Z 0403/0424 VRB05KT P6SM SCT080
     FM040300 00000KT P6SM FEW060
      TEMPO 0410/0412 4SM BR
     FM041400 15005KT P6SM SCT060=



000
FTUS42 KCAE 040200 AAA
TAFCUB
TAF AMD
KCUB 040230Z 0403/0424 00000KT P6SM SCT080
     FM040300 00000KT P6SM FEW060
     FM041400 19005KT P6SM BKN060=



000
FTUS42 KCAE 032300
TAFAGS
TAF
KAGS 032320Z 0400/0424 00000KT P6SM FEW060
      TEMPO 0409/0412 4SM BR
     FM041400 16005KT P6SM SCT060=



000
FTUS42 KCAE 032300
TAFOGB
TAF
KOGB 032320Z 0400/0424 VRB05KT P6SM SCT060
     FM040300 00000KT P6SM FEW060
      TEMPO 0410/0412 4SM BR
     FM041400 15005KT P6SM SCT060=



000
FTUS42 KCAE 032300
TAFDNL
TAF
KDNL 032320Z 0400/0424 00000KT P6SM FEW060
     FM041400 16005KT P6SM SCT060=



000
FTUS42 KCAE 032300
TAFCAE
TAF
KCAE 032320Z 0400/0424 00000KT P6SM FEW060
     FM041400 18005KT P6SM SCT060=



000
FTUS42 KCAE 032300
TAFDNL
TAF
KDNL 032320Z 0400/0424 00000KT P6SM FEW060
     FM041400 16005KT P6SM SCT060=



000
FTUS42 KCAE 032300
TAFAGS
TAF
KAGS 032320Z 0400/0424 00000KT P6SM FEW060
      TEMPO 0409/0412 4SM BR
     FM041400 16005KT P6SM SCT060=



000
FTUS42 KCAE 032300
TAFCAE
TAF
KCAE 032320Z 0400/0424 00000KT P6SM FEW060
     FM041400 18005KT P6SM SCT060=



000
FTUS42 KCAE 032300
TAFOGB
TAF
KOGB 032320Z 0400/0424 VRB05KT P6SM SCT060
     FM040300 00000KT P6SM FEW060
      TEMPO 0410/0412 4SM BR
     FM041400 15005KT P6SM SCT060=



000
FTUS42 KCAE 032300
TAFCUB
TAF
KCUB 032320Z 0400/0424 00000KT P6SM SCT060
     FM040300 00000KT P6SM FEW060
     FM041400 19005KT P6SM BKN060=



000
FTUS42 KCAE 032300
TAFCUB
TAF
KCUB 032320Z 0400/0424 00000KT P6SM SCT060
     FM040300 00000KT P6SM FEW060
     FM041400 19005KT P6SM BKN060=



000
FTUS42 KCAE 032000 AAA
TAFCUB
TAF AMD
KCUB 032032Z 0321/0418 VRB04KT P6SM SCT060
     FM040300 00000KT P6SM FEW060
     FM041400 21005KT P6SM BKN060=



000
FTUS42 KCAE 032000 AAA
TAFOGB
TAF AMD
KOGB 032032Z 0321/0418 VRB05KT P6SM SCT060
     FM040300 00000KT P6SM FEW060
     FM041400 21005KT P6SM BKN060=



000
FTUS42 KCAE 032000 AAA
TAFCAE
TAF AMD
KCAE 032032Z 0321/0418 VRB05KT P6SM SCT060
     FM040300 00000KT P6SM FEW060
     FM041400 21005KT P6SM BKN060=



000
FTUS42 KCAE 032000 AAA
TAFAGS
TAF AMD
KAGS 032032Z 0321/0418 VRB05KT P6SM SCT060
     FM040300 00000KT P6SM FEW060
     FM041400 21004KT P6SM SCT060=



000
FTUS42 KCAE 032000 AAA
TAFDNL
TAF AMD
KDNL 032032Z 0321/0418 VRB05KT P6SM SCT060
     FM040300 00000KT P6SM FEW060
     FM041400 21005KT P6SM SCT060=



000
FTUS42 KCAE 031700
TAFAGS
TAF
KAGS 031724Z 0318/0418 20005KT P6SM SCT060
     FM040300 00000KT P6SM FEW060
     FM041400 21004KT P6SM SCT060=



000
FTUS42 KCAE 031700
TAFDNL
TAF
KDNL 031724Z 0318/0418 20005KT P6SM SCT060
     FM040300 VRB02KT P6SM FEW060
     FM041400 21005KT P6SM SCT060=



000
FTUS42 KCAE 031700
TAFCUB
TAF
KCUB 031724Z 0318/0418 20005KT P6SM SCT060
     FM040300 VRB02KT P6SM FEW060
     FM041400 21005KT P6SM BKN060=



000
FTUS42 KCAE 031700
TAFCAE
TAF
KCAE 031724Z 0318/0418 20005KT P6SM SCT060
     FM040300 VRB02KT P6SM FEW060
     FM041400 21005KT P6SM BKN060=



000
FTUS42 KCAE 031700
TAFCAE
TAF
KCAE 031724Z 0318/0418 20005KT P6SM SCT060
     FM040300 VRB02KT P6SM FEW060
     FM041400 21005KT P6SM BKN060=



000
FTUS42 KCAE 031700
TAFAGS
TAF
KAGS 031724Z 0318/0418 20005KT P6SM SCT060
     FM040300 00000KT P6SM FEW060
     FM041400 21004KT P6SM SCT060=



000
FTUS42 KCAE 031700
TAFDNL
TAF
KDNL 031724Z 0318/0418 20005KT P6SM SCT060
     FM040300 VRB02KT P6SM FEW060
     FM041400 21005KT P6SM SCT060=



000
FTUS42 KCAE 031700
TAFOGB
TAF
KOGB 031724Z 0318/0418 21005KT P6SM SCT060
     FM040300 00000KT P6SM FEW060
     FM041400 21005KT P6SM BKN060=



000
FTUS42 KCAE 031700
TAFCUB
TAF
KCUB 031724Z 0318/0418 20005KT P6SM SCT060
     FM040300 VRB02KT P6SM FEW060
     FM041400 21005KT P6SM BKN060=



000
FTUS42 KCAE 031700
TAFOGB
TAF
KOGB 031724Z 0318/0418 21005KT P6SM SCT060
     FM040300 00000KT P6SM FEW060
     FM041400 21005KT P6SM BKN060=



000
FTUS42 KCAE 031500 AAA
TAFOGB
TAF AMD
KOGB 031502Z 0315/0412 21005KT P6SM SCT060
     FM040300 VRB03KT P6SM FEW060=



000
FTUS42 KCAE 031500 AAA
TAFDNL
TAF AMD
KDNL 031502Z 0315/0412 20005KT P6SM SCT060
     FM040300 VRB03KT P6SM FEW060=



000
FTUS42 KCAE 031500 AAA
TAFCUB
TAF AMD
KCUB 031502Z 0315/0412 21005KT P6SM SCT060
     FM040300 VRB03KT P6SM FEW060=



000
FTUS42 KCAE 031500 AAA
TAFAGS
TAF AMD
KAGS 031502Z 0315/0412 20005KT P6SM SCT060
     FM040300 VRB03KT P6SM FEW060=



000
FTUS42 KCAE 031500 AAA
TAFCAE
TAF AMD
KCAE 031502Z 0315/0412 21005KT P6SM SCT060
     FM040300 VRB03KT P6SM FEW060=



000
FTUS42 KCAE 031500 AAA
TAFCAE
TAF AMD
KCAE 031502Z 0315/0412 21005KT P6SM SCT060
     FM040300 VRB03KT P6SM FEW060=



000
FTUS42 KCAE 031500 AAA
TAFAGS
TAF AMD
KAGS 031502Z 0315/0412 20005KT P6SM SCT060
     FM040300 VRB03KT P6SM FEW060=



000
FTUS42 KCAE 031500 AAA
TAFOGB
TAF AMD
KOGB 031502Z 0315/0412 21005KT P6SM SCT060
     FM040300 VRB03KT P6SM FEW060=



000
FTUS42 KCAE 031500 AAA
TAFDNL
TAF AMD
KDNL 031502Z 0315/0412 20005KT P6SM SCT060
     FM040300 VRB03KT P6SM FEW060=



000
FTUS42 KCAE 031500 AAA
TAFCUB
TAF AMD
KCUB 031502Z 0315/0412 21005KT P6SM SCT060
     FM040300 VRB03KT P6SM FEW060=



000
FTUS42 KCAE 031100
TAFOGB
TAF
KOGB 031123Z 0312/0412 VRB03KT P6SM SKC
      TEMPO 0312/0313 00000KT 4SM BR
     FM031700 25005KT P6SM SCT060
     FM040300 VRB03KT P6SM FEW060=



000
FTUS42 KCAE 031100
TAFAGS
TAF
KAGS 031123Z 0312/0412 00000KT 5SM BR SKC
      TEMPO 0312/0313 1/2SM FG
     FM031300 VRB03KT P6SM SKC
     FM031700 22005KT P6SM SCT060
     FM040300 VRB03KT P6SM FEW060=



000
FTUS42 KCAE 031100
TAFDNL
TAF
KDNL 031123Z 0312/0412 VRB03KT P6SM SKC
     FM031700 20005KT P6SM SCT060
     FM040300 VRB03KT P6SM FEW060=



000
FTUS42 KCAE 031100
TAFCUB
TAF
KCUB 031123Z 0312/0412 VRB03KT P6SM SKC
     FM031700 22005KT P6SM SCT060
     FM040300 VRB03KT P6SM FEW060=



000
FTUS42 KCAE 031100
TAFOGB
TAF
KOGB 031123Z 0312/0412 VRB03KT P6SM SKC
      TEMPO 0312/0313 00000KT 4SM BR
     FM031700 25005KT P6SM SCT060
     FM040300 VRB03KT P6SM FEW060=



000
FTUS42 KCAE 031100
TAFCAE
TAF
KCAE 031123Z 0312/0412 VRB03KT P6SM SKC
     FM031700 22005KT P6SM SCT060
     FM040300 VRB03KT P6SM FEW060=



000
FTUS42 KCAE 031100
TAFAGS
TAF
KAGS 031123Z 0312/0412 00000KT 5SM BR SKC
      TEMPO 0312/0313 1/2SM FG
     FM031300 VRB03KT P6SM SKC
     FM031700 22005KT P6SM SCT060
     FM040300 VRB03KT P6SM FEW060=



000
FTUS42 KCAE 031100
TAFCUB
TAF
KCUB 031123Z 0312/0412 VRB03KT P6SM SKC
     FM031700 22005KT P6SM SCT060
     FM040300 VRB03KT P6SM FEW060=



000
FTUS42 KCAE 031100
TAFCAE
TAF
KCAE 031123Z 0312/0412 VRB03KT P6SM SKC
     FM031700 22005KT P6SM SCT060
     FM040300 VRB03KT P6SM FEW060=



000
FTUS42 KCAE 031100
TAFDNL
TAF
KDNL 031123Z 0312/0412 VRB03KT P6SM SKC
     FM031700 20005KT P6SM SCT060
     FM040300 VRB03KT P6SM FEW060=



000
FTUS42 KCAE 030900 AAB
TAFAGS
TAF AMD
KAGS 030907Z 0309/0406 00000KT 5SM BR SKC
      TEMPO 0309/0312 1/2SM FG VV002
     FM031300 VRB03KT P6SM SKC
     FM031700 22005KT P6SM FEW060=



000
FTUS42 KCAE 030800 AAA
TAFDNL
TAF AMD
KDNL 030830Z 0309/0406 VRB03KT P6SM SKC
     FM031700 20005KT P6SM FEW060=



000
FTUS42 KCAE 030800 AAA
TAFOGB
TAF AMD
KOGB 030830Z 0309/0406 VRB03KT P6SM SKC
     FM031700 25005KT P6SM FEW060=



000
FTUS42 KCAE 030800 AAA
TAFCUB
TAF AMD
KCUB 030830Z 0309/0406 VRB03KT P6SM SKC
     FM031700 22005KT P6SM FEW060=



000
FTUS42 KCAE 030800 AAA
TAFAGS
TAF AMD
KAGS 030830Z 0309/0406 VRB03KT P6SM SKC
      TEMPO 0309/0312 3SM BR
     FM031700 22005KT P6SM FEW060=



000
FTUS42 KCAE 030800 AAA
TAFCAE
TAF AMD
KCAE 030830Z 0309/0406 VRB03KT P6SM SKC
     FM031700 22005KT P6SM FEW060=



000
FTUS42 KCAE 030500
TAFOGB
TAF
KOGB 030520Z 0306/0406 VRB03KT P6SM SKC
     FM031700 25005KT P6SM FEW060=



000
FTUS42 KCAE 030500
TAFCUB
TAF
KCUB 030520Z 0306/0406 VRB03KT P6SM SKC
     FM031700 22005KT P6SM FEW060=



000
FTUS42 KCAE 030500
TAFCAE
TAF
KCAE 030520Z 0306/0406 VRB03KT P6SM SKC
     FM031700 22005KT P6SM FEW060=



000
FTUS42 KCAE 030500
TAFDNL
TAF
KDNL 030520Z 0306/0406 VRB03KT P6SM SKC
     FM031700 20005KT P6SM FEW060=



000
FTUS42 KCAE 030500
TAFAGS
TAF
KAGS 030520Z 0306/0406 VRB03KT P6SM SKC
      TEMPO 0309/0312 4SM BR
     FM031700 22005KT P6SM FEW060=



    US Dept of Commerce
    National Oceanic and Atmospheric Administration
    National Weather Service
    1325 East West Highway
    Silver Spring, MD 20910
    Page Author: NWS Internet Services Team
Disclaimer
Information Quality
Credits
Glossary
Privacy Policy
Freedom of Information Act (FOIA)
About Us
Career Opportunities